Time;durP1;ratioP1;P1;durP2;ratioP2;P2;SDS_P1;SDS_P2;PMS_P1;PMS_P2;Temp;Humidity;BMP_temperature;BMP_pressure;BME280_temperature;BME280_humidity;BME280_pressure;Samples;Min_cycle;Max_cycle;Signal;HPM_P1;HPM_P2
2021/06/05 00:00:17;;;;;;;6.13;4.60;;;15.30;94.80;;;;;;5096041;28;20509;-76
2021/06/05 00:02:43;;;;;;;7.43;4.90;;;15.30;90.40;;;;;;5096083;28;20035;-76
2021/06/05 00:05:09;;;;;;;6.03;4.88;;;15.40;89.10;;;;;;5129092;27;20028;-77
2021/06/05 00:07:35;;;;;;;6.78;5.00;;;15.40;90.00;;;;;;5095820;28;20044;-76
2021/06/05 00:10:02;;;;;;;7.55;4.55;;;15.50;88.40;;;;;;5095900;28;20046;-76
2021/06/05 00:12:29;;;;;;;6.47;4.90;;;15.50;87.50;;;;;;5096187;28;20032;-77
2021/06/05 00:14:55;;;;;;;7.32;4.88;;;15.60;87.00;;;;;;5096014;28;20024;-76
2021/06/05 00:17:21;;;;;;;4.72;4.13;;;15.60;86.80;;;;;;5095625;28;20093;-77
2021/06/05 00:19:47;;;;;;;6.68;4.82;;;15.70;89.00;;;;;;5095971;28;20497;-77
2021/06/05 00:22:14;;;;;;;6.55;4.82;;;15.70;92.70;;;;;;5095968;28;20031;-77
2021/06/05 00:24:41;;;;;;;5.22;4.72;;;15.70;91.20;;;;;;5095107;28;20050;-77
2021/06/05 00:27:07;;;;;;;5.63;4.75;;;15.80;90.10;;;;;;5095792;28;20478;-76
2021/06/05 00:29:33;;;;;;;6.25;4.80;;;15.70;90.10;;;;;;5094470;28;20141;-77
2021/06/05 00:31:59;;;;;;;6.05;5.05;;;15.70;91.50;;;;;;5094294;28;20057;-77
2021/06/05 00:34:25;;;;;;;13.20;6.10;;;15.60;94.50;;;;;;5095693;28;20059;-77
2021/06/05 00:36:51;;;;;;;6.88;5.30;;;15.60;98.20;;;;;;5095414;28;20048;-76
2021/06/05 00:39:16;;;;;;;6.15;5.50;;;15.50;98.60;;;;;;5095160;28;20024;-77
2021/06/05 00:41:43;;;;;;;8.20;5.10;;;15.50;98.40;;;;;;5095565;28;20024;-77
2021/06/05 00:44:11;;;;;;;5.28;4.78;;;15.60;99.40;;;;;;5095419;28;20024;-77
2021/06/05 00:46:38;;;;;;;8.15;5.85;;;15.60;99.90;;;;;;5095387;28;20157;-76
2021/06/05 00:49:06;;;;;;;6.45;5.30;;;15.60;99.90;;;;;;5094899;28;20028;-76
2021/06/05 00:51:49;;;;;;;7.40;5.35;;;15.60;99.90;;;;;;5095495;28;20032;-77
2021/06/05 00:54:15;;;;;;;5.55;4.97;;;15.60;99.90;;;;;;5093850;28;20027;-77
2021/06/05 00:56:43;;;;;;;6.05;5.13;;;15.60;99.90;;;;;;5095244;28;20052;-77
2021/06/05 00:59:09;;;;;;;7.13;4.60;;;15.50;97.70;;;;;;5095143;28;20024;-76
2021/06/05 01:01:35;;;;;;;7.28;5.32;;;15.50;97.30;;;;;;5095184;28;20051;-76
2021/06/05 01:04:01;;;;;;;5.15;4.57;;;15.40;97.70;;;;;;5095116;28;20110;-77
2021/06/05 01:06:32;;;;;;;6.18;5.00;;;15.30;98.80;;;;;;5095204;28;20039;-77
2021/06/05 01:09:00;;;;;;;5.85;5.15;;;15.20;99.90;;;;;;5093373;28;20031;-76
2021/06/05 01:12:06;;;;;;;6.65;6.03;;;15.10;99.90;;;;;;5095009;28;20031;-76
2021/06/05 01:15:02;;;;;;;7.25;6.15;;;15.10;99.90;;;;;;5094773;28;20012;-77
2021/06/05 01:17:34;;;;;;;7.25;6.03;;;15.10;99.90;;;;;;5094889;28;20104;-76
2021/06/05 01:20:09;;;;;;;6.57;5.93;;;15.10;99.90;;;;;;5094300;28;20024;-77
2021/06/05 01:22:56;;;;;;;5.70;5.05;;;15.20;99.90;;;;;;5094849;28;20073;-77
2021/06/05 01:26:03;;;;;;;6.30;5.57;;;15.20;99.90;;;;;;5074628;28;20070;-77
2021/06/05 01:28:44;;;;;;;6.53;5.35;;;15.30;99.90;;;;;;5058396;28;20044;-76
2021/06/05 01:31:15;;;;;;;6.63;4.80;;;15.30;99.90;;;;;;5074427;28;20373;-76
2021/06/05 01:33:43;;;;;;;7.80;5.68;;;15.30;99.90;;;;;;5074233;28;20070;-77
2021/06/05 01:36:11;;;;;;;8.70;5.28;;;15.30;99.90;;;;;;5072981;28;20042;-76
2021/06/05 01:38:40;;;;;;;5.60;4.50;;;15.30;99.90;;;;;;5084863;28;20042;-77
2021/06/05 01:41:07;;;;;;;6.05;4.45;;;15.30;99.90;;;;;;5094366;28;20031;-77
2021/06/05 01:43:35;;;;;;;5.10;4.60;;;15.30;98.00;;;;;;5092674;28;20039;-76
2021/06/05 01:46:01;;;;;;;5.32;3.80;;;15.40;98.80;;;;;;5094135;28;20526;-77
2021/06/05 01:48:27;;;;;;;4.97;4.32;;;15.40;90.50;;;;;;5093998;28;20063;-77
2021/06/05 01:50:54;;;;;;;6.40;4.75;;;15.40;91.00;;;;;;5093135;28;20054;-77
2021/06/05 01:53:27;;;;;;;4.05;3.33;;;15.50;93.70;;;;;;5094245;28;20024;-76
2021/06/05 01:56:13;;;;;;;5.72;4.05;;;15.50;94.70;;;;;;5094152;28;20483;-77
2021/06/05 01:58:41;;;;;;;4.55;4.15;;;15.50;99.70;;;;;;5094061;28;20103;-77
2021/06/05 02:01:07;;;;;;;4.05;3.10;;;15.50;93.30;;;;;;5093826;28;20115;-77
2021/06/05 02:03:33;;;;;;;3.60;2.95;;;15.50;90.40;;;;;;5093480;28;20028;-77
2021/06/05 02:05:59;;;;;;;3.67;3.38;;;15.50;88.20;;;;;;5093738;28;20036;-77
2021/06/05 02:08:27;;;;;;;3.63;3.33;;;15.50;88.20;;;;;;5093956;28;20016;-77
2021/06/05 02:10:59;;;;;;;4.40;3.50;;;15.60;86.00;;;;;;5093806;28;20020;-76
2021/06/05 02:13:36;;;;;;;4.38;3.55;;;15.70;81.50;;;;;;5093298;28;20024;-76
2021/06/05 02:16:11;;;;;;;3.90;3.33;;;15.80;80.90;;;;;;5093795;28;20031;-77
2021/06/05 02:18:41;;;;;;;3.55;3.22;;;15.80;79.40;;;;;;5092430;28;20111;-76
2021/06/05 02:21:14;;;;;;;4.35;3.95;;;15.80;77.90;;;;;;5092520;28;20028;-77
2021/06/05 02:23:45;;;;;;;4.40;3.40;;;15.80;78.70;;;;;;5092326;28;20481;-76
2021/06/05 02:26:13;;;;;;;5.40;4.13;;;15.80;80.60;;;;;;5092211;28;20036;-77
2021/06/05 02:28:40;;;;;;;3.83;3.40;;;15.80;81.90;;;;;;5091988;28;20477;-77
2021/06/05 02:31:07;;;;;;;7.35;3.80;;;15.70;82.20;;;;;;5093493;28;20069;-76
2021/06/05 02:33:35;;;;;;;6.82;4.80;;;15.60;85.10;;;;;;5093487;28;20028;-77
2021/06/05 02:36:03;;;;;;;4.55;4.15;;;15.50;88.30;;;;;;5093447;28;20019;-76
2021/06/05 02:38:30;;;;;;;6.53;4.47;;;15.40;91.70;;;;;;5093351;28;20024;-76
2021/06/05 02:40:57;;;;;;;5.20;3.75;;;15.30;94.70;;;;;;5091710;28;20164;-76
2021/06/05 02:43:28;;;;;;;5.20;4.20;;;15.20;99.90;;;;;;5093069;28;20485;-77
2021/06/05 02:46:02;;;;;;;6.22;4.35;;;15.00;99.90;;;;;;5091904;28;20024;-77
2021/06/05 02:49:00;;;;;;;7.20;4.43;;;15.00;99.90;;;;;;5093287;28;20470;-76
2021/06/05 02:51:33;;;;;;;9.05;4.00;;;14.80;99.90;;;;;;5085110;28;20055;-77
2021/06/05 02:53:58;;;;;;;;;;;14.80;99.90;;;;;;5092314;28;20020;-77
2021/06/05 02:56:25;;;;;;;4.07;3.67;;;14.70;99.90;;;;;;5093047;28;19926;-76
2021/06/05 02:58:51;;;;;;;4.35;3.83;;;14.70;99.90;;;;;;5093044;28;20520;-76
2021/06/05 03:01:17;;;;;;;7.55;4.50;;;14.50;99.90;;;;;;5092962;28;20044;-77
2021/06/05 03:03:43;;;;;;;5.18;4.40;;;14.50;99.90;;;;;;5091674;28;20070;-77
2021/06/05 03:06:10;;;;;;;5.05;4.63;;;14.50;99.90;;;;;;5092660;28;20047;-77
2021/06/05 03:08:38;;;;;;;6.70;4.50;;;14.50;99.90;;;;;;5092936;28;20107;-77
2021/06/05 03:11:08;;;;;;;6.97;4.15;;;14.40;99.90;;;;;;5092856;28;20023;-76
2021/06/05 03:13:34;;;;;;;4.35;3.95;;;14.40;99.90;;;;;;5092908;28;20107;-77
2021/06/05 03:16:00;;;;;;;4.32;4.03;;;14.40;99.90;;;;;;5092121;28;20020;-76
2021/06/05 03:18:26;;;;;;;4.40;3.72;;;14.30;99.90;;;;;;5092650;28;20393;-76
2021/06/05 03:20:54;;;;;;;4.72;4.32;;;14.30;99.90;;;;;;5092831;28;20020;-76
2021/06/05 03:23:22;;;;;;;4.45;3.85;;;14.20;99.90;;;;;;5092525;28;20428;-77
2021/06/05 03:25:49;;;;;;;7.20;4.57;;;14.20;99.90;;;;;;5091416;28;20024;-76
2021/06/05 03:28:17;;;;;;;5.53;4.70;;;14.10;99.90;;;;;;5092806;28;20382;-77
2021/06/05 03:30:43;;;;;;;5.03;4.53;;;14.00;99.90;;;;;;5092776;28;20012;-76
2021/06/05 03:33:08;;;;;;;6.63;5.18;;;14.00;99.90;;;;;;5092787;28;20039;-77
2021/06/05 03:35:35;;;;;;;5.55;4.45;;;14.00;99.90;;;;;;5092651;28;20016;-76
2021/06/05 03:38:00;;;;;;;7.10;4.95;;;14.00;99.90;;;;;;5092430;28;20028;-76
2021/06/05 03:40:29;;;;;;;4.75;4.25;;;14.00;99.90;;;;;;5092725;28;20534;-77
2021/06/05 03:42:55;;;;;;;6.78;4.57;;;14.00;99.90;;;;;;5092553;28;20107;-77
2021/06/05 03:45:22;;;;;;;4.75;4.07;;;13.90;99.90;;;;;;5092290;28;20430;-76
2021/06/05 03:47:48;;;;;;;4.80;4.38;;;13.90;99.90;;;;;;5092479;28;20085;-76
2021/06/05 03:50:18;;;;;;;7.28;4.68;;;13.90;99.90;;;;;;5092696;28;20025;-76
2021/06/05 03:52:44;;;;;;;4.15;3.85;;;13.80;99.90;;;;;;5091284;28;20034;-76
2021/06/05 03:55:11;;;;;;;6.22;4.72;;;13.80;99.90;;;;;;5091307;28;20020;-76
2021/06/05 03:57:37;;;;;;;7.63;4.53;;;13.80;99.90;;;;;;5092542;28;20028;-76
2021/06/05 04:00:19;;;;;;;5.18;4.55;;;13.70;99.90;;;;;;5092246;28;20024;-77
2021/06/05 04:02:45;;;;;;;5.65;4.82;;;13.70;99.90;;;;;;5092369;28;20028;-76
2021/06/05 04:05:12;;;;;;;6.50;4.20;;;13.70;99.90;;;;;;5091182;28;20024;-76
2021/06/05 04:07:38;;;;;;;6.25;5.15;;;13.70;99.90;;;;;;5092628;28;20389;-76
2021/06/05 04:10:06;;;;;;;7.07;6.20;;;13.80;99.90;;;;;;5092434;28;20016;-76
2021/06/05 04:12:31;;;;;;;4.95;4.47;;;13.70;99.90;;;;;;5092301;28;20112;-76
2021/06/05 04:14:57;;;;;;;6.63;5.25;;;13.70;99.90;;;;;;5094802;28;20107;-76
2021/06/05 04:17:23;;;;;;;5.88;5.03;;;13.70;99.90;;;;;;5094755;28;20020;-76
2021/06/05 04:19:49;;;;;;;7.18;5.00;;;13.70;99.90;;;;;;5095967;28;20051;-76
2021/06/05 04:22:15;;;;;;;6.95;5.45;;;13.70;99.90;;;;;;5096010;28;20035;-76
2021/06/05 04:24:41;;;;;;;7.85;5.40;;;13.70;99.90;;;;;;5095837;28;20020;-76
2021/06/05 04:27:08;;;;;;;8.43;6.13;;;13.70;99.90;;;;;;5095637;28;20082;-76
2021/06/05 04:29:35;;;;;;;6.03;5.43;;;13.70;99.90;;;;;;5095827;28;20090;-76
2021/06/05 04:32:02;;;;;;;7.43;5.72;;;13.70;99.90;;;;;;5095782;28;20031;-76
2021/06/05 04:34:28;;;;;;;7.47;6.53;;;13.70;99.90;;;;;;5095667;28;20092;-77
2021/06/05 04:36:53;;;;;;;9.13;6.28;;;13.70;99.90;;;;;;5095382;28;20475;-77
2021/06/05 04:39:21;;;;;;;8.50;6.03;;;13.70;99.90;;;;;;5095667;28;20036;-77
2021/06/05 04:41:47;;;;;;;11.55;7.00;;;13.70;99.90;;;;;;5095520;28;20381;-77
2021/06/05 04:44:12;;;;;;;9.30;6.90;;;13.80;99.90;;;;;;5095527;28;20080;-76
2021/06/05 04:46:38;;;;;;;7.30;5.88;;;13.80;99.90;;;;;;5095262;28;20073;-76
2021/06/05 04:49:07;;;;;;;7.75;6.85;;;13.80;99.90;;;;;;5095355;28;20024;-76
2021/06/05 04:51:32;;;;;;;9.07;6.18;;;13.80;99.90;;;;;;5095291;28;20055;-76
2021/06/05 04:53:58;;;;;;;9.77;6.20;;;13.80;99.90;;;;;;5093977;28;20093;-76
2021/06/05 04:56:45;;;;;;;8.23;7.30;;;13.90;99.90;;;;;;5093932;28;20385;-76
2021/06/05 04:59:13;;;;;;;6.28;5.65;;;14.10;99.90;;;;;;5095262;28;20589;-76
2021/06/05 05:01:39;;;;;;;7.95;6.30;;;14.10;99.90;;;;;;5095190;28;20046;-76
2021/06/05 05:04:06;;;;;;;6.70;6.00;;;14.10;99.90;;;;;;5095166;28;20028;-76
2021/06/05 05:06:33;;;;;;;8.93;6.88;;;14.00;99.90;;;;;;5094944;28;20040;-77
2021/06/05 05:08:59;;;;;;;10.75;6.60;;;14.00;99.90;;;;;;5095020;28;20060;-77
2021/06/05 05:11:25;;;;;;;7.80;7.00;;;14.00;99.90;;;;;;5095087;28;20024;-77
2021/06/05 05:13:51;;;;;;;10.30;8.75;;;14.10;99.90;;;;;;5093629;28;20024;-77
2021/06/05 05:16:18;;;;;;;16.40;14.05;;;14.10;99.90;;;;;;5094826;28;20016;-77
2021/06/05 05:18:46;;;;;;;21.73;18.88;;;14.20;99.90;;;;;;5094799;28;20044;-77
2021/06/05 05:21:18;;;;;;;21.67;18.35;;;14.20;99.90;;;;;;5094823;28;20385;-77
2021/06/05 05:23:43;;;;;;;16.67;12.63;;;14.30;99.90;;;;;;5094744;28;20103;-77
2021/06/05 05:26:10;;;;;;;11.82;9.60;;;14.50;99.90;;;;;;5094680;28;20442;-77
2021/06/05 05:28:38;;;;;;;9.82;7.95;;;14.50;99.90;;;;;;5094608;28;20028;-76
2021/06/05 05:31:10;;;;;;;10.38;8.63;;;14.50;99.90;;;;;;5092874;28;20023;-76
2021/06/05 05:33:39;;;;;;;10.45;8.55;;;14.50;99.90;;;;;;5094543;28;20173;-77
2021/06/05 05:36:13;;;;;;;8.82;7.82;;;14.60;99.90;;;;;;5094399;28;20095;-76
2021/06/05 05:38:39;;;;;;;12.23;8.55;;;14.60;99.90;;;;;;5092695;28;20078;-77
2021/06/05 05:41:07;;;;;;;10.25;9.25;;;14.70;99.90;;;;;;5094472;28;20020;-76
2021/06/05 05:43:33;;;;;;;9.57;8.63;;;14.70;99.90;;;;;;5094300;28;20028;-77
2021/06/05 05:46:00;;;;;;;10.63;8.88;;;14.70;99.90;;;;;;5094232;28;20095;-76
2021/06/05 05:48:25;;;;;;;10.65;8.35;;;14.80;99.90;;;;;;5094066;28;20024;-77
2021/06/05 05:50:51;;;;;;;9.20;7.97;;;14.90;99.90;;;;;;5094217;28;20035;-76
2021/06/05 05:53:17;;;;;;;8.52;7.00;;;14.90;99.90;;;;;;5094249;28;20028;-77
2021/06/05 05:55:44;;;;;;;10.55;8.55;;;15.10;99.90;;;;;;5094042;28;20465;-76
2021/06/05 05:58:12;;;;;;;9.27;7.97;;;15.20;99.90;;;;;;5094124;28;20082;-77
2021/06/05 06:00:40;;;;;;;12.05;9.02;;;15.30;99.90;;;;;;5094070;28;20025;-77
2021/06/05 06:03:07;;;;;;;11.40;10.20;;;15.50;99.90;;;;;;5093819;28;20035;-77
2021/06/05 06:05:33;;;;;;;12.45;9.55;;;15.60;99.90;;;;;;5094025;28;20111;-76
2021/06/05 06:07:59;;;;;;;10.77;8.77;;;15.70;99.90;;;;;;5093568;28;20054;-76
2021/06/05 06:10:25;;;;;;;9.23;7.43;;;15.70;99.90;;;;;;5093276;28;20499;-77
2021/06/05 06:12:50;;;;;;;9.88;8.30;;;15.80;99.90;;;;;;5071784;28;20027;-77
2021/06/05 06:15:20;;;;;;;10.68;8.43;;;15.90;99.90;;;;;;5104597;28;20086;-76
2021/06/05 06:17:46;;;;;;;10.13;9.13;;;16.00;99.90;;;;;;5071178;28;20029;-77
2021/06/05 06:20:34;;;;;;;9.88;8.07;;;16.10;99.90;;;;;;5081832;28;20044;-77
2021/06/05 06:23:01;;;;;;;9.88;7.90;;;16.10;99.90;;;;;;5091429;28;20028;-76
2021/06/05 06:25:31;;;;;;;10.90;8.30;;;16.10;99.90;;;;;;5091061;28;20035;-76
2021/06/05 06:27:57;;;;;;;13.38;8.70;;;16.00;99.90;;;;;;5091347;28;20111;-77
2021/06/05 06:30:27;;;;;;;9.30;7.65;;;16.10;99.90;;;;;;5091611;28;20113;-76
2021/06/05 06:32:53;;;;;;;10.95;8.00;;;16.10;99.90;;;;;;5091885;28;20169;-77
2021/06/05 06:35:21;;;;;;;9.02;8.05;;;16.20;99.90;;;;;;5090552;28;20537;-76
2021/06/05 06:37:47;;;;;;;12.93;8.85;;;16.30;99.90;;;;;;5091049;28;20024;-76
2021/06/05 06:40:13;;;;;;;11.75;8.60;;;16.30;99.90;;;;;;5092046;28;20028;-77
2021/06/05 06:42:39;;;;;;;10.68;8.40;;;16.40;99.90;;;;;;5085445;28;20496;-76
2021/06/05 06:45:05;;;;;;;9.43;7.20;;;16.40;99.90;;;;;;5090544;28;20028;-77
2021/06/05 06:47:31;;;;;;;8.00;7.30;;;16.40;99.90;;;;;;5090136;28;20036;-77
2021/06/05 06:49:57;;;;;;;8.70;7.78;;;16.50;99.90;;;;;;5091624;28;20462;-77
2021/06/05 06:52:25;;;;;;;9.43;7.30;;;16.50;99.90;;;;;;5090979;28;20024;-77
2021/06/05 06:54:52;;;;;;;10.02;7.47;;;16.60;99.90;;;;;;5091642;28;20452;-77
2021/06/05 06:57:18;;;;;;;9.18;8.20;;;16.90;99.90;;;;;;5073388;28;20086;-77
2021/06/05 06:59:44;;;;;;;8.15;6.68;;;17.20;99.90;;;;;;5083229;28;20040;-77
2021/06/05 07:02:10;;;;;;;10.90;7.75;;;17.40;99.90;;;;;;5089351;28;20463;-77
2021/06/05 07:04:36;;;;;;;9.63;7.53;;;17.40;99.90;;;;;;5088611;28;20042;-78
2021/06/05 07:07:02;;;;;;;11.07;7.70;;;17.60;99.90;;;;;;5091709;28;20036;-77
2021/06/05 07:09:29;;;;;;;8.45;6.93;;;17.60;99.90;;;;;;5089380;28;20114;-77
2021/06/05 07:11:54;;;;;;;8.30;6.85;;;17.60;99.90;;;;;;5090890;28;20034;-77
2021/06/05 07:14:20;;;;;;;9.23;6.82;;;17.60;99.90;;;;;;5091248;28;20119;-77
2021/06/05 07:16:46;;;;;;;8.20;5.90;;;17.70;99.90;;;;;;5090476;28;20024;-77
2021/06/05 07:19:11;;;;;;;8.05;5.72;;;17.70;99.90;;;;;;5091421;28;20135;-77
2021/06/05 07:21:37;;;;;;;7.03;5.70;;;17.80;99.90;;;;;;5089832;28;20090;-77
2021/06/05 07:24:04;;;;;;;7.65;6.00;;;17.70;99.90;;;;;;5090903;28;20482;-77
2021/06/05 07:26:30;;;;;;;6.05;5.40;;;17.70;99.90;;;;;;5089906;28;20106;-77
2021/06/05 07:28:58;;;;;;;5.57;5.03;;;17.80;99.90;;;;;;5090593;28;20028;-77
2021/06/05 07:31:32;;;;;;;6.72;5.30;;;17.90;99.90;;;;;;5088596;28;20024;-77
2021/06/05 07:33:58;;;;;;;6.63;5.53;;;18.00;99.90;;;;;;5091123;28;20027;-77
2021/06/05 07:36:29;;;;;;;5.50;4.88;;;18.20;99.90;;;;;;5089655;28;20008;-77
2021/06/05 07:38:55;;;;;;;6.63;5.13;;;18.20;99.90;;;;;;5090869;28;20021;-78
2021/06/05 07:41:21;;;;;;;5.93;5.22;;;18.20;99.90;;;;;;5085688;28;20020;-77
2021/06/05 07:43:47;;;;;;;4.93;4.53;;;18.40;99.90;;;;;;5090678;28;20413;-77
2021/06/05 07:46:12;;;;;;;8.00;5.88;;;18.70;99.90;;;;;;5089923;28;20029;-77
2021/06/05 07:48:38;;;;;;;8.85;5.93;;;18.70;99.90;;;;;;5088978;28;20085;-77
2021/06/05 07:51:06;;;;;;;5.80;5.10;;;18.70;99.80;;;;;;5093407;28;20025;-77
2021/06/05 07:53:31;;;;;;;7.18;5.10;;;18.80;99.90;;;;;;5118978;27;20020;-77
2021/06/05 07:55:58;;;;;;;6.15;5.35;;;18.70;94.30;;;;;;5090036;28;20496;-78
2021/06/05 07:58:24;;;;;;;7.03;6.10;;;18.60;98.30;;;;;;5090622;28;20020;-78
2021/06/05 08:00:50;;;;;;;6.28;5.68;;;18.70;99.90;;;;;;5094096;28;20042;-77
2021/06/05 08:03:16;;;;;;;6.90;6.20;;;18.70;98.70;;;;;;5094158;28;20040;-78
2021/06/05 08:05:42;;;;;;;7.88;5.22;;;18.80;99.90;;;;;;5091729;28;20057;-77
2021/06/05 08:08:11;;;;;;;6.47;5.88;;;18.80;99.90;;;;;;5092000;28;20086;-78
2021/06/05 08:10:39;;;;;;;6.72;6.03;;;18.90;99.90;;;;;;5089709;28;20115;-78
2021/06/05 08:13:05;;;;;;;5.38;4.88;;;19.00;99.90;;;;;;5094023;28;20019;-78
2021/06/05 08:15:34;;;;;;;6.07;5.47;;;19.00;99.10;;;;;;5093662;28;20477;-78
2021/06/05 08:18:00;;;;;;;6.18;5.57;;;19.10;97.50;;;;;;5092773;28;20063;-77
2021/06/05 08:20:37;;;;;;;9.68;5.50;;;19.20;96.80;;;;;;5091367;28;20079;-78
2021/06/05 08:23:04;;;;;;;6.30;4.82;;;19.30;91.50;;;;;;5093602;28;20363;-77
2021/06/05 08:25:31;;;;;;;8.18;5.78;;;19.40;91.80;;;;;;5092627;28;20489;-76
2021/06/05 08:27:56;;;;;;;7.85;5.45;;;19.60;95.30;;;;;;5091686;28;20393;-78
2021/06/05 08:30:38;;;;;;;5.90;5.30;;;19.70;92.00;;;;;;5091724;28;20040;-78
2021/06/05 08:33:04;;;;;;;13.20;5.50;;;19.70;81.90;;;;;;5091870;28;20099;-77
2021/06/05 08:35:30;;;;;;;6.75;4.95;;;19.80;83.20;;;;;;5092367;28;20028;-77
2021/06/05 08:37:56;;;;;;;5.95;5.40;;;19.90;84.70;;;;;;5092156;28;20028;-77
2021/06/05 08:40:35;;;;;;;6.07;5.03;;;20.00;83.10;;;;;;5092643;28;20109;-77
2021/06/05 08:43:01;;;;;;;6.35;5.38;;;20.20;82.40;;;;;;5088349;28;20020;-77
2021/06/05 08:45:31;;;;;;;6.28;5.68;;;20.30;80.20;;;;;;5092610;28;20040;-77
2021/06/05 08:47:58;;;;;;;5.25;4.75;;;20.40;80.30;;;;;;5092675;28;20439;-77
2021/06/05 08:50:29;;;;;;;6.45;4.93;;;20.30;80.90;;;;;;5090339;28;20389;-76
2021/06/05 08:53:11;;;;;;;8.30;4.90;;;20.50;79.80;;;;;;5092750;28;20024;-77
2021/06/05 08:55:43;;;;;;;5.70;5.10;;;20.60;78.30;;;;;;5086916;28;20298;-77
2021/06/05 08:58:29;;;;;;;9.30;6.10;;;20.70;75.00;;;;;;5071914;28;20073;-76
2021/06/05 09:00:59;;;;;;;6.07;5.10;;;20.70;73.00;;;;;;5074295;28;20040;-76
2021/06/05 09:03:27;;;;;;;9.82;5.03;;;20.90;74.70;;;;;;5092120;28;20062;-76
2021/06/05 09:06:00;;;;;;;7.28;5.30;;;21.10;73.20;;;;;;5092162;28;20051;-77
2021/06/05 09:08:28;;;;;;;5.35;4.85;;;21.30;71.20;;;;;;5092505;28;20040;-77
2021/06/05 09:10:57;;;;;;;5.18;4.68;;;21.50;72.00;;;;;;5092852;28;20043;-77
2021/06/05 09:13:23;;;;;;;6.18;5.35;;;21.70;68.70;;;;;;5092905;28;20093;-77
2021/06/05 09:15:48;;;;;;;6.18;4.70;;;21.80;68.50;;;;;;5093253;28;20078;-78
2021/06/05 09:18:15;;;;;;;6.72;4.93;;;21.80;68.40;;;;;;5093176;28;20024;-77
2021/06/05 09:21:00;;;;;;;7.97;5.30;;;21.90;67.00;;;;;;5091940;28;20059;-77
2021/06/05 09:23:28;;;;;;;6.88;5.68;;;22.10;67.20;;;;;;5091089;28;20465;-77
2021/06/05 09:25:55;;;;;;;5.70;4.65;;;22.30;66.70;;;;;;5091060;28;20089;-77
2021/06/05 09:28:28;;;;;;;6.13;5.05;;;22.40;67.00;;;;;;5092808;28;20043;-77
2021/06/05 09:31:11;;;;;;;7.00;4.53;;;22.40;62.90;;;;;;5091977;28;20034;-78
2021/06/05 09:33:37;;;;;;;6.30;5.10;;;22.50;64.20;;;;;;5089627;28;20024;-78
2021/06/05 09:36:35;;;;;;;4.43;4.03;;;22.50;65.70;;;;;;5090813;28;20056;-77
2021/06/05 09:39:11;;;;;;;5.93;5.43;;;22.70;63.50;;;;;;5068294;28;20066;-78
2021/06/05 09:41:37;;;;;;;6.75;4.35;;;22.50;59.30;;;;;;5081357;28;20476;-78
2021/06/05 09:44:20;;;;;;;7.00;4.63;;;22.70;59.50;;;;;;5090815;28;20051;-78
2021/06/05 09:47:05;;;;;;;3.63;3.33;;;22.80;62.40;;;;;;5090038;28;20066;-77
2021/06/05 09:49:36;;;;;;;5.38;4.00;;;22.50;59.50;;;;;;5087437;28;20050;-78
2021/06/05 09:52:21;;;;;;;4.57;4.18;;;22.40;58.50;;;;;;5089267;28;20024;-77
2021/06/05 09:54:49;;;;;;;5.25;4.75;;;22.60;61.40;;;;;;5086267;28;20312;-77
2021/06/05 09:57:29;;;;;;;4.75;4.18;;;22.70;61.50;;;;;;5090202;28;20032;-77
2021/06/05 10:00:07;;;;;;;5.35;4.68;;;22.70;60.70;;;;;;5080626;28;20119;-78
2021/06/05 10:02:34;;;;;;;4.75;4.32;;;22.70;60.60;;;;;;5088582;28;20540;-78
2021/06/05 10:05:09;;;;;;;6.38;4.82;;;23.00;61.90;;;;;;5090779;28;20475;-78
2021/06/05 10:07:35;;;;;;;7.60;4.70;;;23.10;59.40;;;;;;5090527;28;20043;-78
2021/06/05 10:10:24;;;;;;;5.30;4.80;;;23.40;59.50;;;;;;5090675;28;20042;-77
2021/06/05 10:12:52;;;;;;;8.57;4.65;;;23.40;59.80;;;;;;5075996;28;20024;-78
2021/06/05 10:15:23;;;;;;;6.70;4.82;;;23.40;57.80;;;;;;5113919;27;20065;-78
2021/06/05 10:17:57;;;;;;;5.97;4.57;;;23.20;55.60;;;;;;5089672;28;20027;-78
2021/06/05 10:20:59;;;;;;;6.82;4.85;;;23.20;57.00;;;;;;5088945;28;20032;-78
2021/06/05 10:23:29;;;;;;;9.10;5.47;;;23.30;58.10;;;;;;5091907;28;20111;-78
2021/06/05 10:26:02;;;;;;;6.50;5.90;;;23.30;61.10;;;;;;5090797;28;20070;-78
2021/06/05 10:28:34;;;;;;;11.80;10.15;;;23.20;60.20;;;;;;5091829;28;20024;-78
2021/06/05 10:31:11;;;;;;;7.32;5.60;;;23.20;60.50;;;;;;5092080;28;20516;-78
2021/06/05 10:34:09;;;;;;;14.05;10.55;;;23.10;60.40;;;;;;5090085;28;20056;-78
2021/06/05 10:36:49;;;;;;;8.20;6.75;;;23.10;58.80;;;;;;5076868;28;20397;-78
2021/06/05 10:39:27;;;;;;;7.18;6.00;;;23.20;59.80;;;;;;5113628;27;20017;-78
2021/06/05 10:41:57;;;;;;;7.82;6.25;;;23.20;60.10;;;;;;5089825;28;20024;-78
2021/06/05 10:44:23;;;;;;;7.45;6.75;;;23.00;57.90;;;;;;5088440;28;20028;-78
2021/06/05 10:47:02;;;;;;;6.72;5.70;;;22.90;61.80;;;;;;5116255;27;20389;-78
2021/06/05 10:49:55;;;;;;;8.38;6.45;;;23.00;60.90;;;;;;5112492;27;20389;-77
2021/06/05 10:52:25;;;;;;;6.57;5.53;;;22.90;59.50;;;;;;5091140;28;20020;-78
2021/06/05 10:54:54;;;;;;;6.65;5.53;;;23.00;57.60;;;;;;5091342;28;20073;-77
2021/06/05 10:57:21;;;;;;;9.02;7.03;;;23.20;58.10;;;;;;5090633;28;20028;-77
2021/06/05 10:59:58;;;;;;;7.85;6.80;;;23.60;57.70;;;;;;5091450;28;20054;-78
2021/06/05 11:02:36;;;;;;;11.13;8.40;;;23.60;56.80;;;;;;5088812;28;20012;-79
2021/06/05 11:05:29;;;;;;;30.45;20.65;;;23.60;55.90;;;;;;5089940;28;20012;-78
2021/06/05 11:08:10;;;;;;;7.85;5.63;;;23.90;56.80;;;;;;5090461;28;20040;-78
2021/06/05 11:11:12;;;;;;;9.50;6.20;;;23.90;57.60;;;;;;5090923;28;20066;-78
2021/06/05 11:13:41;;;;;;;8.15;6.63;;;23.80;58.20;;;;;;5090773;28;20024;-79
2021/06/05 11:16:12;;;;;;;7.65;6.45;;;23.90;58.10;;;;;;5088918;28;20119;-77
2021/06/05 11:18:42;;;;;;;7.20;6.28;;;23.80;57.60;;;;;;5089481;28;20457;-78
2021/06/05 11:21:23;;;;;;;8.48;5.68;;;23.70;58.40;;;;;;5087929;28;20395;-78
2021/06/05 11:23:58;;;;;;;8.70;6.28;;;23.60;56.50;;;;;;5091863;28;20020;-79
2021/06/05 11:26:38;;;;;;;9.45;6.75;;;23.60;57.60;;;;;;5095425;28;20520;-78
2021/06/05 11:29:19;;;;;;;6.70;5.47;;;23.40;58.10;;;;;;5096748;28;20028;-78
2021/06/05 11:31:55;;;;;;;7.10;5.18;;;23.50;57.60;;;;;;5095432;28;20020;-78
2021/06/05 11:34:29;;;;;;;6.65;6.03;;;23.60;56.30;;;;;;5096875;28;20389;-78
2021/06/05 11:37:07;;;;;;;9.43;7.15;;;23.60;57.60;;;;;;5096189;28;20035;-78
2021/06/05 11:39:33;;;;;;;7.18;6.18;;;23.60;57.40;;;;;;5094791;28;20051;-77
2021/06/05 11:42:02;;;;;;;10.45;6.45;;;23.40;58.50;;;;;;5095251;28;20454;-78
2021/06/05 11:44:33;;;;;;;7.15;6.45;;;23.50;61.20;;;;;;5095115;28;20039;-78
2021/06/05 11:47:21;;;;;;;11.65;9.48;;;23.50;56.30;;;;;;5094083;28;20079;-78
2021/06/05 11:50:08;;;;;;;12.25;9.27;;;23.60;56.30;;;;;;5095077;28;20119;-78
2021/06/05 11:52:44;;;;;;;8.07;6.63;;;23.60;55.90;;;;;;5088966;28;20104;-78
2021/06/05 11:55:17;;;;;;;12.93;8.05;;;23.60;56.90;;;;;;5091371;28;20043;-78
2021/06/05 11:57:52;;;;;;;12.65;7.65;;;23.70;57.70;;;;;;5090338;28;20032;-77
2021/06/05 12:00:38;;;;;;;10.82;7.80;;;23.60;58.10;;;;;;5092504;28;20030;-78
2021/06/05 12:03:27;;;;;;;8.70;6.65;;;23.60;58.00;;;;;;5092059;28;20035;-78
2021/06/05 12:06:13;;;;;;;8.15;6.00;;;23.70;56.90;;;;;;5093656;28;20044;-78
2021/06/05 12:08:39;;;;;;;9.00;6.88;;;23.60;56.20;;;;;;5092795;28;20516;-77
2021/06/05 12:11:18;;;;;;;8.15;6.18;;;23.60;56.20;;;;;;5092746;28;20028;-78
2021/06/05 12:13:44;;;;;;;8.88;6.80;;;23.70;56.30;;;;;;5089920;28;20020;-77
2021/06/05 12:16:15;;;;;;;7.18;5.97;;;23.60;56.30;;;;;;5092897;28;20068;-78
2021/06/05 12:18:44;;;;;;;10.70;7.00;;;23.70;57.50;;;;;;5089065;28;20036;-78
2021/06/05 12:21:26;;;;;;;7.60;6.10;;;23.60;55.30;;;;;;5091345;28;20494;-78
2021/06/05 12:23:52;;;;;;;8.00;6.07;;;23.60;54.50;;;;;;5089982;28;20103;-79
2021/06/05 12:26:24;;;;;;;7.13;5.75;;;23.50;54.40;;;;;;5086489;28;20087;-79
2021/06/05 12:28:52;;;;;;;;;;;23.40;54.60;;;;;;5092754;28;20052;-78
2021/06/05 12:31:25;;;;;;;9.25;6.32;;;23.40;54.60;;;;;;5092664;28;19908;-78
2021/06/05 12:34:01;;;;;;;9.25;5.80;;;23.20;56.50;;;;;;5090143;28;20030;-78
2021/06/05 12:36:33;;;;;;;8.70;6.60;;;23.00;57.80;;;;;;5090716;28;20089;-78
2021/06/05 12:39:20;;;;;;;6.45;5.75;;;23.00;60.10;;;;;;5089010;28;20051;-75
2021/06/05 12:41:48;;;;;;;7.38;6.22;;;23.00;59.70;;;;;;5088243;28;20131;-76
2021/06/05 12:44:16;;;;;;;7.93;6.75;;;23.10;59.80;;;;;;5084832;28;20036;-76
2021/06/05 12:46:42;;;;;;;9.68;6.40;;;23.00;58.50;;;;;;5092105;28;20043;-76
2021/06/05 12:49:11;;;;;;;10.15;7.20;;;23.10;58.30;;;;;;5092122;28;20097;-76
2021/06/05 12:51:43;;;;;;;7.75;5.47;;;23.10;58.80;;;;;;5092032;28;20028;-76
2021/06/05 12:54:11;;;;;;;6.07;5.40;;;23.40;58.20;;;;;;5093995;28;20024;-76
2021/06/05 12:56:43;;;;;;;8.25;5.72;;;23.60;55.50;;;;;;5090269;28;20021;-76
2021/06/05 12:59:14;;;;;;;6.88;5.75;;;23.80;53.70;;;;;;5090320;28;20033;-76
2021/06/05 13:01:47;;;;;;;7.05;6.35;;;24.00;53.80;;;;;;5089878;28;20028;-76